Time;durP1;ratioP1;P1;durP2;ratioP2;P2;SDS_P1;SDS_P2;PMS_P1;PMS_P2;Temp;Humidity;BMP_temperature;BMP_pressure;BME280_temperature;BME280_humidity;BME280_pressure;Samples;Min_cycle;Max_cycle;Signal;HPM_P1;HPM_P2
2022/11/15 00:02:04;;;;;;;25.17;13.55;;;10.30;78.20;;;;;;5034561;28;20106;-65
2022/11/15 00:04:48;;;;;;;24.02;12.95;;;10.30;78.40;;;;;;5035365;28;20049;-65
2022/11/15 00:07:32;;;;;;;23.80;12.88;;;10.30;78.40;;;;;;5027028;28;20112;-65
2022/11/15 00:10:16;;;;;;;26.15;14.27;;;10.40;78.60;;;;;;5032865;28;20036;-65
2022/11/15 00:13:08;;;;;;;23.17;12.43;;;10.40;78.70;;;;;;5032685;28;20040;-65
2022/11/15 00:15:52;;;;;;;24.98;12.82;;;10.30;78.70;;;;;;5032497;28;20039;-65
2022/11/15 00:18:38;;;;;;;25.50;13.40;;;10.40;78.90;;;;;;5034489;28;20382;-65
2022/11/15 00:21:22;;;;;;;21.63;12.38;;;10.40;78.90;;;;;;5032240;28;20383;-65
2022/11/15 00:24:06;;;;;;;24.38;14.13;;;10.30;79.00;;;;;;5033944;28;20151;-65
2022/11/15 00:26:50;;;;;;;27.35;12.77;;;10.30;79.00;;;;;;5033568;28;20036;-65
2022/11/15 00:29:34;;;;;;;23.15;12.00;;;10.30;79.10;;;;;;5034003;28;20091;-65
2022/11/15 00:32:18;;;;;;;22.80;13.57;;;10.30;79.20;;;;;;5032703;28;20532;-65
2022/11/15 00:35:02;;;;;;;24.50;13.45;;;10.30;79.20;;;;;;5032446;28;20126;-65
2022/11/15 00:37:47;;;;;;;23.35;13.32;;;10.30;79.20;;;;;;5031164;28;20122;-65
2022/11/15 00:40:32;;;;;;;24.55;12.32;;;10.40;79.40;;;;;;5031308;28;20108;-65
2022/11/15 00:43:16;;;;;;;21.70;11.75;;;10.30;79.40;;;;;;5033160;28;20036;-65
2022/11/15 00:46:02;;;;;;;21.75;13.45;;;10.40;79.50;;;;;;5032329;28;20417;-65
2022/11/15 00:48:46;;;;;;;21.45;12.15;;;10.30;79.50;;;;;;5033806;28;20095;-65
2022/11/15 00:51:30;;;;;;;21.85;12.05;;;10.30;79.50;;;;;;5032294;28;20037;-65
2022/11/15 00:54:14;;;;;;;23.85;12.60;;;10.40;79.70;;;;;;5035434;28;20064;-65
2022/11/15 00:56:58;;;;;;;22.67;12.30;;;10.40;79.80;;;;;;5033718;28;20468;-65
2022/11/15 00:59:42;;;;;;;22.67;12.40;;;10.40;79.90;;;;;;5031395;28;20043;-65
2022/11/15 01:02:27;;;;;;;20.33;12.60;;;10.40;79.90;;;;;;5023684;28;20052;-65
2022/11/15 01:05:12;;;;;;;21.30;11.88;;;10.40;80.00;;;;;;5036182;28;20044;-65
2022/11/15 01:07:56;;;;;;;21.30;12.20;;;10.40;80.10;;;;;;5028461;28;20453;-65
2022/11/15 01:10:40;;;;;;;21.60;12.85;;;10.40;80.20;;;;;;5027558;28;20341;-65
2022/11/15 01:13:25;;;;;;;21.77;13.00;;;10.40;80.30;;;;;;5036700;28;20044;-65
2022/11/15 01:16:16;;;;;;;20.25;12.18;;;10.40;80.40;;;;;;5036706;28;20480;-65
2022/11/15 01:19:00;;;;;;;19.88;11.73;;;10.40;80.50;;;;;;5035545;28;20107;-65
2022/11/15 01:21:45;;;;;;;20.17;12.30;;;10.40;80.50;;;;;;5037676;28;20052;-65
2022/11/15 01:24:29;;;;;;;19.45;11.23;;;10.40;80.60;;;;;;5035135;28;20037;-65
2022/11/15 01:27:13;;;;;;;21.27;12.18;;;10.40;80.70;;;;;;5035892;28;20045;-65
2022/11/15 01:29:57;;;;;;;19.55;12.27;;;10.50;80.80;;;;;;5035461;28;20075;-65
2022/11/15 01:32:41;;;;;;;21.20;12.13;;;10.50;80.80;;;;;;5034532;28;20063;-65
2022/11/15 01:35:25;;;;;;;24.38;13.65;;;10.50;80.80;;;;;;5030385;28;20139;-65
2022/11/15 01:38:09;;;;;;;21.33;12.65;;;10.50;80.80;;;;;;5035342;28;20048;-65
2022/11/15 01:40:53;;;;;;;20.58;12.38;;;10.50;80.90;;;;;;5036067;28;20060;-65
2022/11/15 01:43:39;;;;;;;21.48;11.95;;;10.50;81.00;;;;;;5035036;28;20382;-65
2022/11/15 01:46:34;;;;;;;20.00;12.25;;;10.50;81.00;;;;;;5025645;28;20437;-65
2022/11/15 01:49:22;;;;;;;20.33;11.90;;;10.50;81.20;;;;;;5034549;28;20132;-65
2022/11/15 01:52:10;;;;;;;18.70;11.85;;;10.60;81.20;;;;;;5036446;28;20153;-65
2022/11/15 01:55:10;;;;;;;22.85;13.35;;;10.60;81.30;;;;;;5045576;28;20127;-65
2022/11/15 01:57:59;;;;;;;20.35;11.52;;;10.60;81.30;;;;;;5034215;28;20032;-65
2022/11/15 02:00:43;;;;;;;19.75;11.73;;;10.60;81.30;;;;;;5034173;28;20127;-65
2022/11/15 02:03:38;;;;;;;21.20;11.70;;;10.60;81.40;;;;;;5033282;28;20045;-65
2022/11/15 02:06:22;;;;;;;21.10;12.55;;;10.60;81.50;;;;;;5029745;28;20179;-65
2022/11/15 02:09:07;;;;;;;21.30;11.70;;;10.70;82.20;;;;;;5023291;28;20429;-65
2022/11/15 02:11:52;;;;;;;21.98;12.70;;;10.70;81.60;;;;;;5035282;28;20473;-65
2022/11/15 02:14:38;;;;;;;18.15;12.45;;;10.70;81.60;;;;;;5031768;28;20056;-65
2022/11/15 02:17:39;;;;;;;17.88;11.43;;;10.70;81.70;;;;;;5047817;28;20055;-66
2022/11/15 02:20:46;;;;;;;19.00;12.02;;;10.70;81.70;;;;;;5052990;28;20075;-65
2022/11/15 02:24:10;;;;;;;19.50;11.93;;;10.70;81.80;;;;;;5046022;28;20032;-67
2022/11/15 02:27:15;;;;;;;18.50;11.63;;;10.70;81.70;;;;;;5040656;28;20118;-65
2022/11/15 02:29:59;;;;;;;20.88;11.27;;;10.80;81.80;;;;;;5039360;28;20092;-65
2022/11/15 02:33:03;;;;;;;16.83;10.77;;;10.80;81.80;;;;;;5046179;28;20052;-65
2022/11/15 02:35:59;;;;;;;18.38;11.35;;;10.80;81.90;;;;;;5042844;28;20488;-65
2022/11/15 02:39:02;;;;;;;21.55;10.90;;;10.80;81.90;;;;;;5056004;28;20479;-65
2022/11/15 02:43:56;;;;;;;17.48;11.18;;;10.80;82.00;;;;;;5031703;28;20087;-65
2022/11/15 02:45:16;;;;;;;20.67;12.45;;;10.80;82.00;;;;;;5036044;28;20401;-65
2022/11/15 02:48:02;;;;;;;15.75;10.52;;;10.80;82.00;;;;;;5041639;28;20048;-65
2022/11/15 02:50:47;;;;;;;15.63;10.20;;;10.90;82.10;;;;;;5039127;28;20040;-65
2022/11/15 02:53:31;;;;;;;16.80;10.45;;;10.90;82.20;;;;;;5039360;28;20111;-65
2022/11/15 02:56:15;;;;;;;18.08;11.32;;;10.90;82.20;;;;;;5053218;28;20074;-65
2022/11/15 02:59:24;;;;;;;18.25;11.63;;;10.90;82.20;;;;;;5055497;28;20039;-65
2022/11/15 03:02:23;;;;;;;18.85;11.70;;;11.00;82.30;;;;;;5029359;28;20098;-65
2022/11/15 03:06:00;;;;;;;18.77;11.98;;;10.90;82.90;;;;;;5027274;28;20037;-65
2022/11/15 03:08:59;;;;;;;17.30;10.00;;;11.00;82.30;;;;;;5047133;28;20079;-65
2022/11/15 03:11:52;;;;;;;16.40;10.18;;;11.00;82.40;;;;;;5044202;28;20036;-65
2022/11/15 03:14:43;;;;;;;15.55;10.52;;;11.00;82.50;;;;;;5039150;28;20113;-65
2022/11/15 03:17:32;;;;;;;17.30;11.07;;;11.00;82.50;;;;;;5060801;28;20496;-65
2022/11/15 03:20:18;;;;;;;17.50;11.27;;;11.00;82.50;;;;;;5036860;28;20041;-65
2022/11/15 03:23:07;;;;;;;18.33;10.60;;;11.10;82.60;;;;;;5051599;28;20369;-64
2022/11/15 03:25:54;;;;;;;16.48;10.40;;;11.10;82.70;;;;;;5040449;28;20201;-65
2022/11/15 03:29:11;;;;;;;15.35;10.15;;;11.10;82.70;;;;;;5029744;28;20369;-65
2022/11/15 03:32:18;;;;;;;19.10;10.75;;;11.10;82.70;;;;;;5040154;28;20090;-65
2022/11/15 03:35:05;;;;;;;17.63;10.50;;;11.20;82.80;;;;;;5034326;28;20074;-65
2022/11/15 03:38:16;;;;;;;16.13;9.93;;;11.10;82.70;;;;;;5047698;28;20421;-65
2022/11/15 03:41:05;;;;;;;17.95;10.40;;;11.20;82.80;;;;;;5031315;28;20486;-65
2022/11/15 03:43:54;;;;;;;16.60;9.82;;;11.20;83.50;;;;;;5030526;28;20377;-65
2022/11/15 03:46:59;;;;;;;17.83;10.35;;;11.20;82.90;;;;;;5039111;28;20032;-65
2022/11/15 03:49:55;;;;;;;14.95;10.45;;;11.20;82.90;;;;;;5036283;28;20086;-65
2022/11/15 03:52:40;;;;;;;18.00;10.38;;;11.20;83.00;;;;;;5032055;28;20067;-65
2022/11/15 03:55:24;;;;;;;19.70;11.88;;;11.20;82.90;;;;;;5044935;28;20537;-65
2022/11/15 03:58:09;;;;;;;17.70;10.90;;;11.30;83.00;;;;;;5046759;28;20067;-65
2022/11/15 04:00:53;;;;;;;17.48;11.07;;;11.30;83.10;;;;;;5029682;28;20096;-65
2022/11/15 04:03:38;;;;;;;16.05;10.43;;;11.30;83.00;;;;;;5042457;28;20028;-65
2022/11/15 04:06:22;;;;;;;16.58;11.05;;;11.30;83.10;;;;;;5045098;28;20040;-65
2022/11/15 04:09:06;;;;;;;17.35;11.82;;;11.40;83.20;;;;;;5049820;28;20425;-65
2022/11/15 04:11:49;;;;;;;18.52;12.30;;;11.40;83.30;;;;;;5046385;28;20132;-65
2022/11/15 04:14:33;;;;;;;17.00;11.80;;;11.50;83.40;;;;;;5040087;28;20091;-65
2022/11/15 04:17:17;;;;;;;16.30;10.98;;;11.50;83.60;;;;;;5045136;28;20136;-65
2022/11/15 04:26:23;;;;;;;18.00;11.85;;;11.60;83.80;;;;;;5042784;28;20087;-65
2022/11/15 04:32:11;;;;;;;17.95;11.65;;;11.70;84.00;;;;;;5042623;28;20052;-65
2022/11/15 04:34:55;;;;;;;19.27;12.10;;;11.70;84.10;;;;;;5045209;28;20076;-65
2022/11/15 04:37:39;;;;;;;19.13;12.80;;;11.70;84.10;;;;;;5038893;28;20358;-65
2022/11/15 04:40:23;;;;;;;17.90;12.35;;;11.70;84.20;;;;;;5040072;28;20091;-65
2022/11/15 04:43:07;;;;;;;18.48;12.57;;;11.80;84.40;;;;;;5042133;28;20056;-65
2022/11/15 04:45:51;;;;;;;20.80;12.38;;;11.80;84.40;;;;;;5036801;28;20342;-65
2022/11/15 04:48:36;;;;;;;20.45;11.63;;;11.80;84.50;;;;;;5049450;28;20033;-65
2022/11/15 04:51:20;;;;;;;19.00;11.52;;;11.80;84.60;;;;;;5034082;28;20370;-65
2022/11/15 04:54:04;;;;;;;19.02;12.27;;;11.80;84.60;;;;;;5040344;28;20064;-65
2022/11/15 04:56:48;;;;;;;19.02;11.88;;;11.80;84.60;;;;;;5032071;28;20060;-65
2022/11/15 04:59:32;;;;;;;21.92;11.50;;;11.90;84.70;;;;;;5036281;28;20064;-65
2022/11/15 05:02:16;;;;;;;17.38;11.18;;;11.80;84.70;;;;;;5029561;28;20467;-65
2022/11/15 05:05:00;;;;;;;18.98;11.75;;;11.90;84.80;;;;;;5036019;28;20031;-65
2022/11/15 05:07:44;;;;;;;19.83;11.70;;;11.90;84.90;;;;;;5032592;28;20110;-65
2022/11/15 05:10:28;;;;;;;19.80;11.77;;;11.90;84.90;;;;;;5033827;28;20044;-65
2022/11/15 05:13:12;;;;;;;16.67;11.57;;;11.90;85.00;;;;;;5036128;28;20099;-65
2022/11/15 05:15:56;;;;;;;18.60;11.93;;;11.90;85.00;;;;;;5032238;28;20083;-65
2022/11/15 05:18:41;;;;;;;18.27;11.88;;;11.90;85.10;;;;;;5035687;28;20429;-65
2022/11/15 05:21:25;;;;;;;16.42;11.85;;;11.90;85.20;;;;;;5033152;28;20060;-65
2022/11/15 05:24:10;;;;;;;18.40;11.65;;;11.90;85.20;;;;;;5038168;28;20032;-65
2022/11/15 05:26:54;;;;;;;19.95;12.38;;;11.90;85.90;;;;;;5033762;28;20370;-65
2022/11/15 05:29:38;;;;;;;17.20;11.90;;;11.90;85.20;;;;;;5036008;28;20044;-65
2022/11/15 05:32:23;;;;;;;18.88;11.00;;;11.90;85.30;;;;;;5039235;28;20048;-65
2022/11/15 05:35:29;;;;;;;19.13;12.15;;;11.90;85.30;;;;;;5036989;28;20122;-65
2022/11/15 05:38:13;;;;;;;19.05;12.63;;;11.90;85.30;;;;;;5035575;28;20124;-65
2022/11/15 05:40:59;;;;;;;19.83;12.50;;;11.90;85.90;;;;;;5027928;28;20040;-65
2022/11/15 05:43:44;;;;;;;18.05;11.32;;;11.90;85.40;;;;;;5033925;28;20374;-65
2022/11/15 05:46:29;;;;;;;20.10;12.30;;;11.90;85.40;;;;;;5035750;28;20121;-65
2022/11/15 05:49:16;;;;;;;18.38;11.73;;;12.00;85.50;;;;;;5034489;28;20064;-65
2022/11/15 05:52:04;;;;;;;17.73;11.32;;;11.90;85.50;;;;;;5036001;28;20043;-65
2022/11/15 05:54:49;;;;;;;17.98;11.77;;;11.90;85.50;;;;;;5032868;28;20048;-65
2022/11/15 05:57:33;;;;;;;16.80;11.07;;;11.90;85.50;;;;;;5035308;28;20040;-65
2022/11/15 06:00:18;;;;;;;19.50;12.23;;;11.90;85.50;;;;;;5034250;28;20374;-65
2022/11/15 06:03:02;;;;;;;16.90;11.05;;;11.90;85.50;;;;;;5034001;28;20382;-65
2022/11/15 06:05:46;;;;;;;17.92;12.20;;;12.00;85.60;;;;;;5046300;28;20489;-65
2022/11/15 06:08:30;;;;;;;19.30;11.80;;;11.90;85.60;;;;;;5031913;28;20084;-65
2022/11/15 06:11:14;;;;;;;17.90;11.63;;;12.00;85.70;;;;;;5033893;28;20098;-66
2022/11/15 06:13:58;;;;;;;19.02;11.85;;;12.00;85.70;;;;;;5034299;28;20036;-65
2022/11/15 06:16:43;;;;;;;21.02;11.60;;;12.00;85.70;;;;;;5029553;28;20068;-66
2022/11/15 06:19:32;;;;;;;19.42;11.43;;;12.00;85.70;;;;;;5029452;28;20064;-66
2022/11/15 06:22:16;;;;;;;16.67;11.38;;;12.00;85.80;;;;;;5042578;28;20125;-66
2022/11/15 06:25:00;;;;;;;18.25;11.52;;;12.00;85.70;;;;;;5032105;28;20079;-66
2022/11/15 06:27:51;;;;;;;17.10;11.80;;;12.00;85.70;;;;;;5030396;28;20035;-66
2022/11/15 06:30:35;;;;;;;17.75;11.38;;;12.00;85.80;;;;;;5025578;28;20362;-66
2022/11/15 06:33:19;;;;;;;17.42;10.80;;;12.00;85.80;;;;;;5042287;28;20087;-66
2022/11/15 06:36:06;;;;;;;17.48;11.75;;;12.00;85.80;;;;;;5032591;28;20079;-66
2022/11/15 06:38:50;;;;;;;17.25;11.35;;;12.00;85.90;;;;;;5034071;28;20080;-66
2022/11/15 06:41:35;;;;;;;20.25;11.30;;;12.00;85.90;;;;;;5036842;28;20088;-66
2022/11/15 06:44:19;;;;;;;18.58;12.35;;;12.00;86.00;;;;;;5024444;28;20706;-66
2022/11/15 06:47:03;;;;;;;17.67;10.98;;;12.00;86.00;;;;;;5032750;28;20059;-66
2022/11/15 06:49:47;;;;;;;19.05;11.75;;;12.00;86.00;;;;;;5028926;28;20098;-66
2022/11/15 06:52:32;;;;;;;17.90;11.50;;;12.00;86.10;;;;;;5032303;28;20043;-66
2022/11/15 06:55:16;;;;;;;16.98;10.43;;;12.00;86.10;;;;;;5033343;28;20095;-66
2022/11/15 06:58:00;;;;;;;18.20;11.02;;;12.00;86.10;;;;;;5028038;28;20095;-66
2022/11/15 07:00:44;;;;;;;18.27;10.93;;;12.00;86.10;;;;;;5032309;28;20036;-66
2022/11/15 07:03:28;;;;;;;16.50;11.00;;;12.00;86.20;;;;;;5030725;28;20561;-66
2022/11/15 07:06:13;;;;;;;18.48;11.45;;;12.10;86.30;;;;;;5029305;28;20179;-66
2022/11/15 07:08:57;;;;;;;18.42;12.38;;;12.00;86.20;;;;;;5030773;28;20048;-66
2022/11/15 07:11:41;;;;;;;18.08;11.40;;;12.10;86.30;;;;;;5035385;28;20413;-67
2022/11/15 07:14:25;;;;;;;17.90;11.90;;;12.10;86.30;;;;;;5032345;28;20064;-67
2022/11/15 07:17:09;;;;;;;16.83;10.93;;;12.10;86.30;;;;;;5029225;28;20429;-66
2022/11/15 07:19:53;;;;;;;18.63;12.25;;;12.10;86.20;;;;;;5030920;28;20040;-66
2022/11/15 07:22:37;;;;;;;16.48;11.57;;;12.20;86.30;;;;;;5029787;28;20040;-67
2022/11/15 07:25:21;;;;;;;19.90;12.70;;;12.20;86.20;;;;;;5031445;28;20461;-66
2022/11/15 07:28:05;;;;;;;16.75;11.25;;;12.30;86.30;;;;;;5031008;28;20086;-66
2022/11/15 07:30:50;;;;;;;15.07;11.07;;;12.30;86.30;;;;;;5035757;28;20040;-66
2022/11/15 07:33:35;;;;;;;17.05;11.05;;;12.30;86.30;;;;;;5027343;28;20040;-66
2022/11/15 07:36:19;;;;;;;15.82;10.85;;;12.30;86.30;;;;;;5028758;28;20144;-66
2022/11/15 07:39:03;;;;;;;16.02;10.70;;;12.30;86.40;;;;;;5028941;28;20040;-66
2022/11/15 07:41:49;;;;;;;27.85;11.82;;;12.30;86.40;;;;;;5033931;28;20043;-66
2022/11/15 07:44:33;;;;;;;16.85;10.77;;;12.40;86.40;;;;;;5027366;28;20370;-66
2022/11/15 07:47:17;;;;;;;16.13;9.82;;;12.40;86.40;;;;;;5028163;28;20115;-66
2022/11/15 07:50:01;;;;;;;14.68;10.60;;;12.40;86.40;;;;;;5031760;28;20070;-66
2022/11/15 07:52:46;;;;;;;14.65;10.23;;;12.40;86.40;;;;;;5030999;28;20102;-66
2022/11/15 07:55:30;;;;;;;16.05;10.25;;;12.40;86.40;;;;;;5031137;28;20049;-66
2022/11/15 07:58:14;;;;;;;15.38;9.90;;;12.40;86.50;;;;;;5041734;28;20040;-67
2022/11/15 08:00:58;;;;;;;15.40;9.50;;;12.40;86.60;;;;;;5027622;28;20053;-67
2022/11/15 08:03:42;;;;;;;14.63;10.15;;;12.40;86.60;;;;;;5033156;28;20504;-66
2022/11/15 08:06:26;;;;;;;15.48;10.02;;;12.40;86.60;;;;;;5024231;28;20036;-67
2022/11/15 08:09:10;;;;;;;15.02;9.07;;;12.40;86.70;;;;;;5029766;28;20041;-66
2022/11/15 08:11:54;;;;;;;13.90;8.77;;;12.40;86.70;;;;;;5027827;28;20099;-66
2022/11/15 08:14:38;;;;;;;16.77;10.02;;;12.40;86.70;;;;;;5033299;28;20036;-66
2022/11/15 08:17:23;;;;;;;13.73;9.00;;;12.40;86.70;;;;;;5034924;28;20108;-66
2022/11/15 08:20:08;;;;;;;16.05;9.50;;;12.40;86.60;;;;;;5031539;28;20685;-70
2022/11/15 08:22:52;;;;;;;13.63;8.77;;;12.50;86.70;;;;;;5031360;28;20048;-71
2022/11/15 08:25:36;;;;;;;13.00;8.60;;;12.50;86.70;;;;;;5039633;28;20037;-71
2022/11/15 08:28:21;;;;;;;14.07;9.70;;;12.50;86.70;;;;;;5055801;28;20044;-70
2022/11/15 08:31:05;;;;;;;15.05;9.40;;;12.50;86.70;;;;;;5049515;28;20152;-71
2022/11/15 08:33:50;;;;;;;16.23;10.27;;;12.50;86.80;;;;;;5034697;28;20043;-70
2022/11/15 08:36:34;;;;;;;13.77;8.98;;;12.50;86.70;;;;;;5054181;28;20047;-70
2022/11/15 08:39:18;;;;;;;14.73;8.88;;;12.50;86.70;;;;;;5049527;28;20135;-71
2022/11/15 08:42:02;;;;;;;13.32;8.95;;;12.50;86.70;;;;;;5051997;28;20102;-70
2022/11/15 08:44:46;;;;;;;14.40;8.82;;;12.60;86.70;;;;;;5051861;28;20036;-71
2022/11/15 08:47:30;;;;;;;15.15;8.88;;;12.60;86.70;;;;;;5054073;28;20094;-71
2022/11/15 08:50:15;;;;;;;15.25;9.60;;;12.70;86.70;;;;;;5057230;28;20079;-71
2022/11/15 08:53:05;;;;;;;16.00;8.98;;;12.70;86.70;;;;;;5058006;28;20047;-71
2022/11/15 08:55:49;;;;;;;12.70;8.55;;;12.70;86.60;;;;;;5032557;28;20114;-70
2022/11/15 08:58:34;;;;;;;16.75;9.60;;;12.80;86.60;;;;;;5057544;28;20063;-71
2022/11/15 09:01:20;;;;;;;16.02;9.00;;;12.80;86.60;;;;;;5054879;28;20040;-71
2022/11/15 09:04:04;;;;;;;16.55;9.18;;;12.80;86.50;;;;;;5038414;28;20509;-71
2022/11/15 09:06:49;;;;;;;13.90;8.95;;;12.80;86.50;;;;;;5057783;28;20369;-71
2022/11/15 09:09:33;;;;;;;14.20;8.55;;;12.80;86.50;;;;;;5034464;28;20539;-71
2022/11/15 09:12:17;;;;;;;14.50;9.45;;;12.90;86.50;;;;;;5056690;28;20405;-71
2022/11/15 09:15:01;;;;;;;14.63;9.50;;;12.90;86.50;;;;;;5042533;28;20499;-71
2022/11/15 09:17:46;;;;;;;12.25;7.30;;;13.00;86.40;;;;;;5047403;28;20083;-71
2022/11/15 09:20:30;;;;;;;12.25;8.00;;;13.00;86.20;;;;;;5056431;28;20051;-71
2022/11/15 09:23:14;;;;;;;12.90;7.20;;;12.90;86.20;;;;;;5052023;28;20103;-71
2022/11/15 09:26:03;;;;;;;13.63;7.90;;;12.90;86.30;;;;;;5050537;28;20048;-71
2022/11/15 09:28:47;;;;;;;13.13;7.70;;;13.00;86.30;;;;;;5057640;28;20071;-71
2022/11/15 09:31:31;;;;;;;13.68;8.40;;;12.90;86.20;;;;;;5053294;28;20128;-71
2022/11/15 09:34:15;;;;;;;11.55;7.22;;;12.90;86.20;;;;;;5048671;28;20056;-71
2022/11/15 09:36:59;;;;;;;14.70;7.22;;;12.90;86.20;;;;;;5029623;28;20044;-71
2022/11/15 09:39:43;;;;;;;12.90;7.60;;;12.90;86.10;;;;;;5056699;28;20480;-71
2022/11/15 09:42:52;;;;;;;12.85;7.20;;;13.00;86.10;;;;;;5056327;28;20187;-71
2022/11/15 09:45:47;;;;;;;14.40;6.90;;;13.00;86.00;;;;;;5031460;28;20051;-71
2022/11/15 09:48:49;;;;;;;11.88;6.97;;;13.00;85.90;;;;;;5052041;28;20041;-70
2022/11/15 09:51:47;;;;;;;13.80;7.25;;;13.10;85.90;;;;;;5057720;28;20041;-71
2022/11/15 09:54:33;;;;;;;11.10;6.35;;;13.10;85.80;;;;;;5033039;28;20025;-71
2022/11/15 09:57:16;;;;;;;11.95;6.65;;;13.20;85.70;;;;;;5048102;28;20025;-70
2022/11/15 10:00:01;;;;;;;12.13;7.03;;;13.20;85.60;;;;;;5036731;28;20116;-71
2022/11/15 10:02:52;;;;;;;12.82;6.28;;;13.40;85.40;;;;;;5036726;28;20030;-71
2022/11/15 10:05:24;;;;;;;12.57;6.40;;;13.60;85.00;;;;;;5049748;28;20033;-71
2022/11/15 10:08:10;;;;;;;12.70;6.35;;;13.90;84.50;;;;;;5029802;28;20037;-70
2022/11/15 10:10:44;;;;;;;10.50;6.15;;;13.90;84.30;;;;;;5018713;28;20136;-70
2022/11/15 10:13:25;;;;;;;11.57;6.28;;;14.00;84.10;;;;;;5034863;28;20068;-70
2022/11/15 10:15:53;;;;;;;11.02;6.00;;;14.00;84.10;;;;;;5035400;28;20029;-70
2022/11/15 10:18:42;;;;;;;9.77;5.47;;;14.00;84.00;;;;;;5034826;28;20056;-70
2022/11/15 10:21:22;;;;;;;8.48;5.32;;;14.00;84.00;;;;;;5035031;28;20115;-70
2022/11/15 10:23:48;;;;;;;9.32;5.35;;;13.90;83.90;;;;;;5035006;28;20037;-70
2022/11/15 10:26:16;;;;;;;8.73;5.05;;;13.80;83.80;;;;;;5050594;28;20360;-70
2022/11/15 10:28:42;;;;;;;9.32;5.70;;;13.80;83.90;;;;;;5054993;28;20056;-70
2022/11/15 10:31:26;;;;;;;10.50;4.75;;;13.70;84.00;;;;;;5038299;28;20494;-70
2022/11/15 10:34:13;;;;;;;8.85;4.32;;;13.70;83.90;;;;;;5033347;28;20033;-71
2022/11/15 10:36:53;;;;;;;7.80;4.20;;;13.70;83.90;;;;;;5046086;28;20107;-70
2022/11/15 10:39:19;;;;;;;10.10;4.03;;;13.60;83.80;;;;;;5055050;28;20029;-70
2022/11/15 10:41:45;;;;;;;7.43;4.30;;;13.60;83.70;;;;;;5055364;28;20025;-70
2022/11/15 10:44:16;;;;;;;7.35;3.85;;;13.60;83.70;;;;;;5054457;28;20331;-70
2022/11/15 10:46:46;;;;;;;7.20;3.30;;;13.70;83.30;;;;;;5055613;28;20037;-71
2022/11/15 10:49:28;;;;;;;6.82;3.38;;;13.70;83.10;;;;;;5054603;28;20124;-71
2022/11/15 10:52:04;;;;;;;8.30;3.40;;;13.80;82.80;;;;;;5055364;28;20052;-71
2022/11/15 10:54:54;;;;;;;8.10;3.03;;;13.90;82.40;;;;;;5045890;28;20094;-71
2022/11/15 10:57:23;;;;;;;6.63;2.92;;;14.20;81.70;;;;;;5054391;28;20029;-70
2022/11/15 10:59:54;;;;;;;7.68;2.67;;;14.40;81.20;;;;;;5055408;28;20044;-71
2022/11/15 11:02:47;;;;;;;6.63;2.90;;;14.50;80.60;;;;;;5055391;28;20079;-71
2022/11/15 11:05:37;;;;;;;9.15;2.67;;;14.60;79.90;;;;;;5055281;28;20112;-70
2022/11/15 11:08:18;;;;;;;5.47;2.38;;;14.50;79.60;;;;;;5036802;28;20059;-70
2022/11/15 11:10:58;;;;;;;6.65;2.67;;;14.50;79.70;;;;;;5052119;28;20032;-71
2022/11/15 11:13:35;;;;;;;5.20;2.40;;;14.40;79.50;;;;;;5055243;28;20033;-70
2022/11/15 11:16:36;;;;;;;6.68;2.38;;;14.30;79.60;;;;;;5053834;28;20082;-71
2022/11/15 11:19:18;;;;;;;8.38;2.55;;;14.20;79.50;;;;;;5055322;28;20469;-70
2022/11/15 11:21:49;;;;;;;6.70;2.30;;;14.20;79.40;;;;;;5042040;28;20588;-71
2022/11/15 11:24:25;;;;;;;4.90;1.90;;;14.20;79.00;;;;;;5038813;28;20029;-71
2022/11/15 11:27:34;;;;;;;7.63;1.98;;;14.30;78.80;;;;;;5044661;28;20149;-70
2022/11/15 11:30:09;;;;;;;7.43;2.25;;;14.30;78.10;;;;;;5053828;28;20025;-70
2022/11/15 11:33:05;;;;;;;5.50;2.13;;;14.20;77.70;;;;;;5053386;28;20033;-71
2022/11/15 11:36:02;;;;;;;6.10;2.25;;;14.20;77.40;;;;;;5021509;28;20073;-69
2022/11/15 11:38:49;;;;;;;5.60;1.95;;;14.20;77.20;;;;;;5048829;28;20357;-71
2022/11/15 11:41:39;;;;;;;8.68;1.85;;;14.20;77.00;;;;;;5048426;28;20396;-72
2022/11/15 11:44:41;;;;;;;5.57;1.92;;;14.20;76.70;;;;;;5039669;28;20051;-71
2022/11/15 11:47:10;;;;;;;4.43;1.60;;;14.20;76.40;;;;;;5048781;28;20108;-71
2022/11/15 11:49:52;;;;;;;6.25;2.05;;;14.10;76.30;;;;;;5046228;28;20025;-72
2022/11/15 11:52:33;;;;;;;5.72;2.10;;;14.00;75.90;;;;;;5054452;28;20048;-71
2022/11/15 11:55:26;;;;;;;5.97;2.05;;;13.90;75.70;;;;;;5044852;28;20037;-71
2022/11/15 11:58:11;;;;;;;8.45;2.42;;;13.90;75.70;;;;;;5053458;28;20514;-72
2022/11/15 12:00:41;;;;;;;5.60;2.05;;;13.90;75.70;;;;;;5053117;28;20025;-71
2022/11/15 12:03:07;;;;;;;5.38;1.90;;;13.80;75.50;;;;;;5054363;28;20048;-71
2022/11/15 12:06:06;;;;;;;3.75;1.85;;;13.80;75.50;;;;;;5051369;28;20029;-72
2022/11/15 12:08:35;;;;;;;4.68;1.63;;;13.80;75.00;;;;;;5032390;28;20112;-71
2022/11/15 12:11:32;;;;;;;3.63;1.70;;;13.80;74.90;;;;;;5026167;28;20055;-71
2022/11/15 12:14:01;;;;;;;3.58;1.30;;;13.70;74.30;;;;;;5039723;28;20029;-72
2022/11/15 12:16:32;;;;;;;4.97;1.60;;;13.70;74.30;;;;;;5053328;28;20396;-71
2022/11/15 12:19:03;;;;;;;5.85;1.80;;;13.70;73.80;;;;;;5054662;28;20036;-71
2022/11/15 12:22:14;;;;;;;3.88;1.85;;;13.70;73.60;;;;;;5045336;28;20044;-71
2022/11/15 12:24:56;;;;;;;5.60;1.53;;;13.60;73.40;;;;;;5006064;28;20049;-72
2022/11/15 12:27:44;;;;;;;4.57;1.77;;;13.60;73.40;;;;;;5053022;28;20032;-71
2022/11/15 12:30:14;;;;;;;4.75;1.95;;;13.60;73.50;;;;;;5053100;28;20033;-72
2022/11/15 12:32:59;;;;;;;4.72;1.55;;;13.60;73.50;;;;;;5054175;28;20052;-72
2022/11/15 12:35:42;;;;;;;5.75;1.92;;;13.60;73.40;;;;;;5020814;28;20059;-71
2022/11/15 12:38:12;;;;;;;4.95;1.70;;;13.60;73.40;;;;;;5049763;28;20029;-71
2022/11/15 12:40:59;;;;;;;2.70;1.38;;;13.60;73.30;;;;;;5054062;28;20033;-71
2022/11/15 12:43:41;;;;;;;6.13;1.70;;;13.60;73.20;;;;;;5054174;28;20307;-71
2022/11/15 12:46:13;;;;;;;3.22;1.25;;;13.60;72.90;;;;;;5053199;28;20323;-72
2022/11/15 12:48:38;;;;;;;;;;;13.60;72.80;;;;;;5019728;28;20037;-71
2022/11/15 12:51:04;;;;;;;3.60;1.00;;;13.60;73.00;;;;;;5049252;28;19909;-72
2022/11/15 12:53:32;;;;;;;5.13;1.45;;;13.60;73.00;;;;;;5032143;28;20104;-71
2022/11/15 12:56:14;;;;;;;4.93;1.40;;;13.60;72.70;;;;;;5033782;28;20033;-71
2022/11/15 12:58:59;;;;;;;4.30;1.30;;;13.60;72.40;;;;;;5035341;28;20029;-72
2022/11/15 13:01:30;;;;;;;5.20;1.63;;;13.60;72.20;;;;;;5037812;28;20034;-71
2022/11/15 13:04:13;;;;;;;;;;;13.60;72.10;;;;;;5036830;28;20048;-71
2022/11/15 13:07:03;;;;;;;3.78;1.17;;;13.60;72.30;;;;;;5052984;28;19913;-71
2022/11/15 13:09:31;;;;;;;3.40;1.10;;;13.60;72.10;;;;;;5036000;28;20400;-72
2022/11/15 13:12:01;;;;;;;5.05;1.33;;;13.60;72.00;;;;;;5036181;28;20049;-72
2022/11/15 13:14:43;;;;;;;6.18;1.20;;;13.60;72.00;;;;;;5036452;28;20034;-71
2022/11/15 13:17:29;;;;;;;4.95;1.40;;;13.60;71.60;;;;;;5036409;28;20060;-72
2022/11/15 13:20:15;;;;;;;4.45;1.40;;;13.60;71.40;;;;;;5052940;28;20076;-71
2022/11/15 13:23:06;;;;;;;4.80;1.58;;;13.60;71.30;;;;;;5037147;28;20034;-72
2022/11/15 13:25:53;;;;;;;4.07;1.30;;;13.60;71.20;;;;;;5052704;28;20047;-72
2022/11/15 13:28:52;;;;;;;6.38;1.30;;;13.60;71.10;;;;;;5055917;28;20021;-72
2022/11/15 13:31:29;;;;;;;4.03;1.20;;;13.60;71.00;;;;;;5055926;28;20082;-71
2022/11/15 13:33:59;;;;;;;5.75;1.70;;;13.60;71.00;;;;;;5056364;28;20341;-72
2022/11/15 13:36:29;;;;;;;5.45;1.50;;;13.60;70.90;;;;;;5056857;28;20159;-71
2022/11/15 13:39:04;;;;;;;6.60;1.52;;;13.60;70.70;;;;;;5057035;28;20039;-72
2022/11/15 13:41:35;;;;;;;2.15;1.20;;;13.60;70.60;;;;;;5056780;28;20108;-71
2022/11/15 13:44:03;;;;;;;3.22;1.25;;;13.60;70.60;;;;;;5047681;28;20030;-71
2022/11/15 13:46:33;;;;;;;3.22;1.00;;;13.60;70.60;;;;;;5066488;28;20131;-72
2022/11/15 13:49:02;;;;;;;3.95;1.40;;;13.60;70.40;;;;;;5039097;28;20127;-71
2022/11/15 13:51:39;;;;;;;3.65;1.35;;;13.60;70.30;;;;;;5056515;28;20430;-72
2022/11/15 13:54:30;;;;;;;6.38;1.83;;;13.60;70.30;;;;;;5030803;28;20115;-71
2022/11/15 13:57:03;;;;;;;3.65;1.30;;;13.60;70.20;;;;;;5055658;28;20064;-71
2022/11/15 13:59:44;;;;;;;4.05;1.25;;;13.60;70.30;;;;;;5055995;28;20446;-71
2022/11/15 14:02:15;;;;;;;6.53;2.15;;;13.60;70.20;;;;;;5055372;28;20055;-72
2022/11/15 14:05:13;;;;;;;4.38;1.75;;;13.60;70.10;;;;;;5056457;28;20021;-71
2022/11/15 14:07:39;;;;;;;4.35;1.17;;;13.60;70.00;;;;;;5039044;28;20032;-70
2022/11/15 14:10:31;;;;;;;4.55;1.52;;;13.60;70.00;;;;;;5050363;28;20326;-71
2022/11/15 14:12:58;;;;;;;4.78;1.58;;;13.60;69.90;;;;;;5040407;28;20457;-70
2022/11/15 14:15:31;;;;;;;4.72;1.60;;;13.60;70.00;;;;;;5049636;28;20048;-71